createdAt,value
2023-03-01T00:04:37.055Z,100302.15
2023-03-01T00:09:41.292Z,100300.06
2023-03-01T00:14:44.564Z,100292.73
2023-03-01T00:19:47.801Z,100293.80
2023-03-01T00:31:57.317Z,100288.40
2023-03-01T00:37:06.418Z,100286.30
2023-03-01T00:42:09.777Z,100284.04
2023-03-01T00:47:13.094Z,100276.19
2023-03-01T00:52:16.356Z,100272.51
2023-03-01T00:57:20.102Z,100261.14
2023-03-01T01:02:24.442Z,100257.82
2023-03-01T01:07:28.077Z,100260.63
2023-03-01T01:12:31.691Z,100266.77
2023-03-01T01:17:35.016Z,100262.75
2023-03-01T01:22:39.082Z,100255.75
2023-03-01T01:27:42.470Z,100255.95
2023-03-01T01:32:45.960Z,100247.23
2023-03-01T01:37:49.308Z,100241.82
2023-03-01T01:42:53.074Z,100238.19
2023-03-01T01:48:02.056Z,100237.99
2023-03-01T01:53:13.851Z,100235.56
2023-03-01T01:58:20.509Z,100231.90
2023-03-01T02:03:34.535Z,100228.95
2023-03-01T02:08:42.479Z,100220.75
2023-03-01T02:13:46.338Z,100228.09
2023-03-01T02:18:51.465Z,100233.86
2023-03-01T02:23:56.919Z,100227.92
2023-03-01T02:29:00.535Z,100236.66
2023-03-01T02:34:05.777Z,100240.69
2023-03-01T02:39:15.501Z,100240.17
2023-03-01T02:44:19.042Z,100238.77
2023-03-01T02:49:25.999Z,100236.34
2023-03-01T02:54:40.124Z,100240.36
2023-03-01T02:59:44.509Z,100235.64
2023-03-01T03:04:48.537Z,100235.83
2023-03-01T03:09:52.056Z,100230.06
2023-03-01T03:14:55.453Z,100224.13
2023-03-01T03:19:58.890Z,100221.52
2023-03-01T03:25:02.440Z,100216.45
2023-03-01T03:30:13.486Z,100217.67
2023-03-01T03:35:16.824Z,100218.21
2023-03-01T03:40:20.141Z,100225.00
2023-03-01T03:45:23.849Z,100225.54
2023-03-01T03:50:27.521Z,100227.47
2023-03-01T03:55:31.941Z,100226.75
2023-03-01T04:00:37.877Z,100228.34
2023-03-01T04:05:42.510Z,100224.49
2023-03-01T04:10:48.982Z,100220.65
2023-03-01T04:15:54.586Z,100218.20
2023-03-01T04:20:57.899Z,100231.11
2023-03-01T04:26:00.993Z,100221.17
2023-03-01T04:31:14.326Z,100224.66
2023-03-01T04:36:18.895Z,100220.13
2023-03-01T04:41:23.813Z,100215.42
2023-03-01T04:46:27.651Z,100207.58
2023-03-01T04:51:30.984Z,100201.81
2023-03-01T04:56:34.142Z,100201.30
2023-03-01T05:01:38.216Z,100197.10
2023-03-01T05:06:41.689Z,100207.74
2023-03-01T05:11:45.714Z,100206.70
2023-03-01T05:16:49.235Z,100190.48
2023-03-01T05:22:07.939Z,100188.91
2023-03-01T05:27:11.172Z,100192.05
2023-03-01T05:32:16.962Z,100197.97
2023-03-01T05:37:20.694Z,100203.55
2023-03-01T05:42:24.078Z,100210.18
2023-03-01T05:47:27.453Z,100208.45
2023-03-01T05:52:30.566Z,100208.26
2023-03-01T05:57:33.902Z,100203.55
2023-03-01T06:02:37.308Z,100204.77
2023-03-01T06:07:41.040Z,100210.89
2023-03-01T06:12:44.928Z,100209.48
2023-03-01T06:17:48.790Z,100212.27
2023-03-01T06:22:52.872Z,100215.55
2023-03-01T06:27:56.343Z,100213.63
2023-03-01T06:33:02.589Z,100215.91
2023-03-01T06:38:06.544Z,100211.52
2023-03-01T06:43:09.886Z,100209.06
2023-03-01T06:48:13.176Z,100203.80
2023-03-01T06:53:16.498Z,100202.91
2023-03-01T06:58:19.808Z,100202.52
2023-03-01T07:03:23.880Z,100197.54
2023-03-01T07:08:27.839Z,100186.61
2023-03-01T07:13:31.308Z,100178.30
2023-03-01T07:18:34.978Z,100174.32
2023-03-01T07:23:38.654Z,100164.92
2023-03-01T07:28:42.085Z,100163.61
2023-03-01T07:33:45.432Z,100158.11
2023-03-01T07:38:48.741Z,100161.20
2023-03-01T07:43:51.835Z,100169.34
2023-03-01T07:48:54.989Z,100170.82
2023-03-01T07:53:58.177Z,100171.55
2023-03-01T07:59:01.726Z,100172.96
2023-03-01T08:04:08.263Z,100168.59
2023-03-01T08:09:11.567Z,100163.11
2023-03-01T08:14:14.914Z,100154.45
2023-03-01T08:19:18.504Z,100151.95
2023-03-01T08:24:22.080Z,100147.02
2023-03-01T08:29:28.281Z,100148.52
2023-03-01T08:34:32.704Z,100139.49
2023-03-01T08:39:36.092Z,100138.06
2023-03-01T08:44:39.387Z,100131.36
2023-03-01T08:49:42.737Z,100128.23
2023-03-01T08:54:46.334Z,100121.55
2023-03-01T08:59:49.547Z,100122.41
2023-03-01T09:04:52.989Z,100127.55
2023-03-01T09:09:56.421Z,100129.73
2023-03-01T09:15:05.135Z,100124.04
2023-03-01T09:20:10.252Z,100113.61
2023-03-01T09:25:21.665Z,100111.34
2023-03-01T09:30:25.715Z,100109.09
2023-03-01T09:35:29.260Z,100109.40
2023-03-01T09:40:32.589Z,100115.21
2023-03-01T09:45:40.891Z,100117.08
2023-03-01T09:50:47.886Z,100117.09
2023-03-01T09:56:01.283Z,100115.88
2023-03-01T10:01:24.769Z,100113.31
2023-03-01T10:06:34.917Z,100114.52
2023-03-01T10:11:42.956Z,100113.56
2023-03-01T10:17:00.114Z,100109.03
2023-03-01T10:22:23.255Z,100103.46
2023-03-01T10:27:35.963Z,100094.13
2023-03-01T10:32:39.448Z,100094.71
2023-03-01T10:37:59.058Z,100091.90
2023-03-01T10:43:05.536Z,100087.13
2023-03-01T10:48:25.712Z,100081.98
2023-03-01T10:53:34.638Z,100078.53
2023-03-01T10:58:39.897Z,100072.96
2023-03-01T11:03:43.322Z,100064.49
2023-03-01T11:08:49.150Z,100056.48
2023-03-01T11:14:10.517Z,100045.50
2023-03-01T11:19:22.519Z,100044.66
2023-03-01T11:24:38.430Z,100041.70
2023-03-01T11:29:49.359Z,100039.30
2023-03-01T11:35:00.603Z,100039.26
2023-03-01T11:40:13.371Z,100033.61
2023-03-01T11:45:16.930Z,100029.64
2023-03-01T11:50:36.349Z,100028.52
2023-03-01T11:56:17.164Z,100015.74
2023-03-01T12:01:42.549Z,100003.45
2023-03-01T12:07:02.221Z,100003.13
2023-03-01T12:12:27.204Z,99998.86
2023-03-01T12:17:39.789Z,99993.25
2023-03-01T12:22:55.253Z,99989.59
2023-03-01T12:28:23.911Z,99985.06
2023-03-01T12:33:51.796Z,99983.50
2023-03-01T12:39:20.313Z,99967.96
2023-03-01T12:44:48.209Z,99954.14
2023-03-01T12:49:59.430Z,99948.99
2023-03-01T12:55:08.061Z,99947.58
2023-03-01T13:00:29.945Z,99943.86
2023-03-01T13:05:43.465Z,99938.38
2023-03-01T13:11:17.826Z,99941.84
2023-03-01T13:16:40.656Z,99943.16
2023-03-01T13:21:46.458Z,99946.44
2023-03-01T13:27:08.391Z,99937.14
2023-03-01T13:32:48.810Z,99934.52
2023-03-01T13:37:52.232Z,99929.77
2023-03-01T13:43:05.226Z,99921.09
2023-03-01T13:48:25.513Z,99912.08
2023-03-01T13:53:34.889Z,99915.29
2023-03-01T13:58:56.469Z,99906.79
2023-03-01T14:04:00.842Z,99904.39
2023-03-01T14:09:09.781Z,99903.88
2023-03-01T14:14:22.824Z,99897.11
2023-03-01T14:19:33.482Z,99891.88
2023-03-01T14:24:41.263Z,99890.98
2023-03-01T14:29:45.457Z,99887.52
2023-03-01T14:34:51.614Z,99884.87
2023-03-01T14:39:56.484Z,99887.26
2023-03-01T14:45:02.812Z,99890.04
2023-03-01T14:50:22.643Z,99890.27
2023-03-01T14:55:46.011Z,99887.21
2023-03-01T15:01:06.094Z,99891.90
2023-03-01T15:06:10.355Z,99884.95
2023-03-01T15:11:26.100Z,99880.83
2023-03-01T15:16:35.032Z,99885.75
2023-03-01T15:21:40.048Z,99885.17
2023-03-01T15:26:47.917Z,99877.21
2023-03-01T15:32:06.294Z,99883.54
2023-03-01T15:37:54.894Z,99883.20
2023-03-01T15:43:19.033Z,99879.48
2023-03-01T15:48:22.405Z,99875.94
2023-03-01T15:53:26.209Z,99878.80
2023-03-01T15:58:29.803Z,99871.54
2023-03-01T16:03:33.099Z,99876.98
2023-03-01T16:08:36.230Z,99882.70
2023-03-01T16:13:39.363Z,99889.36
2023-03-01T16:18:47.006Z,99891.02
2023-03-01T16:31:33.356Z,99904.23
2023-03-01T16:36:37.855Z,99902.71
2023-03-01T16:41:41.346Z,99910.50
2023-03-01T16:46:44.792Z,99913.16
2023-03-01T16:51:48.254Z,99912.98
2023-03-01T16:56:51.612Z,99909.63
2023-03-01T17:01:54.809Z,99911.83
2023-03-01T17:06:57.907Z,99915.16
2023-03-01T17:12:01.236Z,99913.02
2023-03-01T17:17:04.507Z,99919.96
2023-03-01T17:22:07.957Z,99919.77
2023-03-01T17:27:13.379Z,99922.16
2023-03-01T17:32:16.748Z,99915.52
2023-03-01T17:37:21.023Z,99917.69
2023-03-01T17:42:24.771Z,99919.38
2023-03-01T17:47:28.226Z,99925.13
2023-03-01T17:52:31.783Z,99930.54
2023-03-01T17:57:35.510Z,99932.52
2023-03-01T18:02:39.070Z,99928.04
2023-03-01T18:07:42.527Z,99928.42
2023-03-01T18:12:45.725Z,99920.55
2023-03-01T18:17:49.426Z,99923.41
2023-03-01T18:22:53.012Z,99925.39
2023-03-01T18:27:56.217Z,99922.27
2023-03-01T18:32:59.329Z,99913.75
2023-03-01T18:38:02.770Z,99914.98
2023-03-01T18:43:06.029Z,99913.10
2023-03-01T18:48:09.572Z,99907.36
2023-03-01T18:53:12.830Z,99909.84
2023-03-01T18:58:16.155Z,99905.27
2023-03-01T19:03:19.503Z,99897.69
2023-03-01T19:08:23.425Z,99893.73
2023-03-01T19:13:27.551Z,99894.41
2023-03-01T19:18:30.880Z,99898.55
2023-03-01T19:23:35.366Z,99894.08
2023-03-01T19:28:39.774Z,99893.69
2023-03-01T19:33:43.932Z,99894.40
2023-03-01T19:38:48.893Z,99896.08
2023-03-01T19:43:52.409Z,99905.00
2023-03-01T19:48:55.821Z,99903.77
2023-03-01T19:53:59.365Z,99906.10
2023-03-01T19:59:04.838Z,99906.11
2023-03-01T20:04:10.032Z,99907.84
2023-03-01T20:09:21.394Z,99911.17
2023-03-01T20:14:25.284Z,99915.61
2023-03-01T20:19:28.685Z,99912.91
2023-03-01T20:24:32.269Z,99912.95
2023-03-01T20:29:36.262Z,99918.83
2023-03-01T20:34:39.588Z,99915.70
2023-03-01T20:39:42.937Z,99910.59
2023-03-01T20:44:46.649Z,99912.15
2023-03-01T20:49:53.187Z,99916.48
2023-03-01T20:54:56.392Z,99912.94
2023-03-01T20:59:59.599Z,99910.95
2023-03-01T21:05:03.157Z,99904.51
2023-03-01T21:10:07.773Z,99909.98
2023-03-01T21:15:15.110Z,99906.38
2023-03-01T21:20:24.759Z,99900.98
2023-03-01T21:25:35.075Z,99903.31
2023-03-01T21:30:38.627Z,99906.52
2023-03-01T21:35:41.988Z,99907.95
2023-03-01T21:40:45.218Z,99909.89
2023-03-01T21:45:49.128Z,99908.20
2023-03-01T21:50:57.249Z,99899.70
2023-03-01T21:56:01.793Z,99902.98
2023-03-01T22:01:10.581Z,99898.67
2023-03-01T22:06:23.081Z,99900.45
2023-03-01T22:11:28.583Z,99897.02
2023-03-01T22:16:36.212Z,99899.51
2023-03-01T22:21:44.742Z,99899.42
2023-03-01T22:26:50.006Z,99898.04
2023-03-01T22:31:54.888Z,99897.36
2023-03-01T22:36:58.792Z,99892.14
2023-03-01T22:42:02.184Z,99893.02
2023-03-01T22:47:05.772Z,99889.57
2023-03-01T22:52:09.125Z,99888.93
2023-03-01T22:57:12.352Z,99887.88
2023-03-01T23:02:15.875Z,99888.95
2023-03-01T23:07:19.184Z,99889.10
2023-03-01T23:12:22.285Z,99886.15
2023-03-01T23:17:25.565Z,99887.98
2023-03-01T23:22:30.813Z,99887.52
2023-03-01T23:27:37.182Z,99890.73
2023-03-01T23:32:41.082Z,99892.02
2023-03-01T23:37:45.757Z,99896.19
2023-03-01T23:42:48.895Z,99894.77
2023-03-01T23:47:52.378Z,99897.45
2023-03-01T23:52:55.649Z,99900.44
2023-03-01T23:57:58.961Z,99892.92
